Time,TemperatureF,DewpointF,PressureIn,WindDirection,WindDirectionDegrees,WindSpeedMPH,WindSpeedGustMPH,Humidity,HourlyPrecipIn,Conditions,Clouds,dailyrainin,SoftwareType,DateUTC
2013-01-28 00:00:00,32.4,9.1,29.15,WNW,293,0.5,2.5,38,-99.99,,,-99.99,WSDL version 420,2013-01-28 05:00:00,
2013-01-28 00:03:00,32.5,9.7,29.15,NW,307,1.2,2.5,39,-99.99,,,-99.99,WSDL version 420,2013-01-28 05:03:00,
2013-01-28 00:08:00,32.5,9.7,29.18,NW,315,0.0,2.5,38,-99.99,,,-99.99,WSDL version 420,2013-01-28 05:08:00,
2013-01-28 00:09:00,32.5,9.7,29.18,NW,315,0.0,2.5,38,-99.99,,,-99.99,WSDL version 420,2013-01-28 05:09:00,
2013-01-28 00:14:00,32.5,9.7,29.18,NW,315,0.0,0.0,38,-99.99,,,-99.99,WSDL version 420,2013-01-28 05:14:00,
2013-01-28 00:19:00,32.5,9.7,29.18,NNW,330,0.0,0.0,38,-99.99,,,-99.99,WSDL version 420,2013-01-28 05:19:00,
2013-01-28 00:24:00,32.5,9.7,29.15,East,90,0.0,0.0,38,-99.99,,,-99.99,WSDL version 420,2013-01-28 05:24:00,
2013-01-28 00:29:00,32.5,9.5,29.15,East,90,0.0,0.0,38,-99.99,,,-99.99,WSDL version 420,2013-01-28 05:29:00,
2013-01-28 00:34:00,32.5,9.7,29.15,East,90,0.0,0.0,38,-99.99,,,-99.99,WSDL version 420,2013-01-28 05:34:00,
2013-01-28 00:39:00,32.5,9.7,29.15,East,90,0.0,0.0,38,-99.99,,,-99.99,WSDL version 420,2013-01-28 05:39:00,
2013-01-28 00:44:00,32.5,9.7,29.15,East,90,0.0,0.0,38,-99.99,,,-99.99,WSDL version 420,2013-01-28 05:44:00,
2013-01-28 00:49:00,32.5,9.7,29.15,East,90,0.0,0.0,38,-99.99,,,-99.99,WSDL version 420,2013-01-28 05:49:00,
2013-01-28 00:54:00,32.5,9.7,29.18,East,90,0.0,0.0,38,-99.99,,,-99.99,WSDL version 420,2013-01-28 05:54:00,
2013-01-28 00:59:00,32.7,9.9,29.18,East,90,0.0,0.0,38,-99.99,,,-99.99,WSDL version 420,2013-01-28 05:59:00,
2013-01-28 01:04:00,32.7,10.1,29.18,East,90,0.0,0.0,39,-99.99,,,-99.99,WSDL version 420,2013-01-28 06:04:00,
2013-01-28 01:09:00,32.7,10.9,29.15,East,90,0.0,0.0,40,-99.99,,,-99.99,WSDL version 420,2013-01-28 06:09:00,
2013-01-28 01:14:00,32.6,10.9,29.15,East,90,0.0,0.0,40,-99.99,,,-99.99,WSDL version 420,2013-01-28 06:14:00,
2013-01-28 01:19:00,32.5,10.9,29.15,East,90,0.0,0.0,40,-99.99,,,-99.99,WSDL version 420,2013-01-28 06:19:00,
2013-01-28 01:24:00,32.5,10.8,29.18,East,90,0.0,0.0,39,-99.99,,,-99.99,WSDL version 420,2013-01-28 06:24:00,
2013-01-28 01:30:00,32.5,10.8,29.18,East,90,0.0,0.0,40,-99.99,,,-99.99,WSDL version 420,2013-01-28 06:30:00,
2013-01-28 01:35:00,32.5,10.9,29.15,East,90,0.0,0.0,40,-99.99,,,-99.99,WSDL version 420,2013-01-28 06:35:00,
2013-01-28 01:40:00,32.5,10.9,29.15,East,90,0.0,0.0,40,-99.99,,,-99.99,WSDL version 420,2013-01-28 06:40:00,
2013-01-28 01:46:00,32.5,10.9,29.15,ESE,113,0.0,0.0,40,-99.99,,,-99.99,WSDL version 420,2013-01-28 06:46:00,
2013-01-28 01:52:00,32.5,11.3,29.15,ESE,113,0.0,0.0,41,-99.99,,,-99.99,WSDL version 420,2013-01-28 06:52:00,
2013-01-28 01:57:00,32.5,11.4,29.15,ESE,113,0.0,0.0,41,-99.99,,,-99.99,WSDL version 420,2013-01-28 06:57:00,
2013-01-28 02:02:00,32.5,11.8,29.15,ESE,113,0.0,0.0,42,-99.99,,,-99.99,WSDL version 420,2013-01-28 07:02:00,
2013-01-28 02:07:00,32.4,11.9,29.15,ESE,113,0.0,0.0,42,-99.99,,,-99.99,WSDL version 420,2013-01-28 07:07:00,
2013-01-28 02:12:00,32.4,11.8,29.15,ESE,113,0.0,0.0,42,-99.99,,,-99.99,WSDL version 420,2013-01-28 07:12:00,
2013-01-28 02:18:00,32.3,12.9,29.15,ESE,113,0.0,0.0,45,-99.99,,,-99.99,WSDL version 420,2013-01-28 07:18:00,
2013-01-28 02:23:00,32.2,13.1,29.15,ESE,113,0.3,1.6,45,-99.99,,,-99.99,WSDL version 420,2013-01-28 07:23:00,
2013-01-28 02:28:00,32.2,13.2,29.15,ESE,113,0.8,1.6,45,-99.99,,,-99.99,WSDL version 420,2013-01-28 07:28:00,
2013-01-28 02:33:00,32.2,13.0,29.15,ESE,105,0.0,1.6,45,-99.99,,,-99.99,WSDL version 420,2013-01-28 07:33:00,
2013-01-28 02:38:00,32.2,13.1,29.15,ESE,113,0.0,0.0,46,-99.99,,,-99.99,WSDL version 420,2013-01-28 07:38:00,
2013-01-28 02:43:00,32.2,13.9,29.15,ESE,113,0.4,1.3,47,-99.99,,,-99.99,WSDL version 420,2013-01-28 07:43:00,
2013-01-28 02:48:00,32.2,13.6,29.15,ESE,113,0.3,1.6,45,-99.99,,,-99.99,WSDL version 420,2013-01-28 07:48:00,
2013-01-28 02:53:00,32.2,13.5,29.12,ESE,113,0.0,1.6,46,-99.99,,,-99.99,WSDL version 420,2013-01-28 07:53:00,
2013-01-28 02:58:00,32.2,14.6,29.12,ESE,107,1.1,2.7,48,-99.99,,,-99.99,WSDL version 420,2013-01-28 07:58:00,
2013-01-28 03:03:00,32.2,14.6,29.12,ESE,113,1.2,2.9,47,-99.99,,,-99.99,WSDL version 420,2013-01-28 08:03:00,
2013-01-28 03:08:00,32.2,14.7,29.12,ESE,113,0.0,2.9,49,-99.99,,,-99.99,WSDL version 420,2013-01-28 08:08:00,
2013-01-28 03:13:00,32.4,16.2,29.12,East,90,0.0,2.2,51,-99.99,,,-99.99,WSDL version 420,2013-01-28 08:13:00,
2013-01-28 03:19:00,32.4,16.2,29.12,East,90,0.3,2.2,50,-99.99,,,-99.99,WSDL version 420,2013-01-28 08:19:00,
2013-01-28 03:24:00,32.5,15.9,29.12,East,90,0.0,2.2,50,-99.99,,,-99.99,WSDL version 420,2013-01-28 08:24:00,
2013-01-28 03:29:00,32.5,16.1,29.12,East,90,1.1,2.7,51,-99.99,,,-99.99,WSDL version 420,2013-01-28 08:29:00,
2013-01-28 03:35:00,32.6,16.7,29.09,East,90,0.7,2.7,52,-99.99,,,-99.99,WSDL version 420,2013-01-28 08:35:00,
2013-01-28 03:41:00,32.6,17.0,29.09,East,90,0.1,2.7,52,-99.99,,,-99.99,WSDL version 420,2013-01-28 08:41:00,
2013-01-28 03:46:00,32.6,16.8,29.09,East,90,0.0,2.0,52,-99.99,,,-99.99,WSDL version 420,2013-01-28 08:46:00,
2013-01-28 03:51:00,32.7,17.0,29.12,East,90,0.0,2.0,52,-99.99,,,-99.99,WSDL version 420,2013-01-28 08:51:00,
2013-01-28 03:56:00,32.8,17.5,29.12,East,90,0.0,0.0,54,-99.99,,,-99.99,WSDL version 420,2013-01-28 08:56:00,
2013-01-28 04:01:00,32.8,17.8,29.12,East,90,0.0,0.0,54,-99.99,,,-99.99,WSDL version 420,2013-01-28 09:01:00,
2013-01-28 04:06:00,33.0,18.5,29.09,East,90,0.0,0.0,55,-99.99,,,-99.99,WSDL version 420,2013-01-28 09:06:00,
2013-01-28 04:11:00,32.9,18.5,29.09,East,90,0.0,0.0,55,-99.99,,,-99.99,WSDL version 420,2013-01-28 09:11:00,
2013-01-28 04:16:00,33.1,19.4,29.09,East,90,0.0,0.0,57,-99.99,,,-99.99,WSDL version 420,2013-01-28 09:16:00,
2013-01-28 04:21:00,33.1,19.0,29.09,East,90,0.0,0.0,55,-99.99,,,-99.99,WSDL version 420,2013-01-28 09:21:00,
2013-01-28 04:26:00,33.1,18.9,29.09,East,90,0.0,0.0,56,-99.99,,,-99.99,WSDL version 420,2013-01-28 09:26:00,
2013-01-28 04:31:00,33.1,19.1,29.09,East,90,0.0,0.0,56,-99.99,,,-99.99,WSDL version 420,2013-01-28 09:31:00,
2013-01-28 04:37:00,33.1,19.6,29.09,East,90,0.0,0.0,59,-99.99,,,-99.99,WSDL version 420,2013-01-28 09:37:00,
2013-01-28 04:42:00,33.1,20.3,29.09,East,90,0.0,0.0,59,-99.99,,,-99.99,WSDL version 420,2013-01-28 09:42:00,
2013-01-28 04:47:00,33.1,20.0,29.09,East,90,0.0,0.0,58,-99.99,,,-99.99,WSDL version 420,2013-01-28 09:47:00,
2013-01-28 04:52:00,33.1,20.2,29.09,East,90,0.0,0.0,58,-99.99,,,-99.99,WSDL version 420,2013-01-28 09:52:00,
2013-01-28 04:57:00,33.1,20.3,29.09,East,90,0.0,0.0,59,-99.99,,,-99.99,WSDL version 420,2013-01-28 09:57:00,
2013-01-28 05:02:00,33.1,20.4,29.09,East,90,0.0,0.0,60,-99.99,,,-99.99,WSDL version 420,2013-01-28 10:02:00,
2013-01-28 05:07:00,33.1,20.0,29.09,NNE,30,0.5,3.4,58,-99.99,,,-99.99,WSDL version 420,2013-01-28 10:07:00,
2013-01-28 05:12:00,33.3,21.6,29.09,NW,315,1.9,3.4,64,-99.99,,,-99.99,WSDL version 420,2013-01-28 10:12:00,
2013-01-28 05:17:00,33.3,22.7,29.09,NW,315,0.0,3.1,65,-99.99,,,-99.99,WSDL version 420,2013-01-28 10:17:00,
2013-01-28 05:22:00,33.2,23.0,29.09,NW,315,0.0,0.0,66,-99.99,,,-99.99,WSDL version 420,2013-01-28 10:22:00,
2013-01-28 05:27:00,33.1,22.8,29.09,NW,315,0.0,0.0,66,-99.99,,,-99.99,WSDL version 420,2013-01-28 10:27:00,
2013-01-28 05:32:00,33.1,23.0,29.09,NW,315,0.0,0.0,66,-99.99,,,-99.99,WSDL version 420,2013-01-28 10:32:00,
2013-01-28 05:37:00,33.1,23.0,29.09,NW,315,0.0,0.0,66,-99.99,,,-99.99,WSDL version 420,2013-01-28 10:37:00,
2013-01-28 05:42:00,33.2,22.8,29.09,NW,315,0.5,2.5,65,-99.99,,,-99.99,WSDL version 420,2013-01-28 10:42:00,
2013-01-28 05:47:00,33.3,22.8,29.09,NW,315,0.0,2.5,65,-99.99,,,-99.99,WSDL version 420,2013-01-28 10:47:00,
2013-01-28 05:52:00,33.3,22.8,29.09,NW,315,0.0,0.0,65,-99.99,,,-99.99,WSDL version 420,2013-01-28 10:52:00,
2013-01-28 05:57:00,33.3,23.1,29.09,NW,315,0.8,2.2,66,-99.99,,,-99.99,WSDL version 420,2013-01-28 10:57:00,
2013-01-28 06:02:00,33.3,23.1,29.09,NW,315,0.0,2.2,66,-99.99,,,-99.99,WSDL version 420,2013-01-28 11:02:00,
2013-01-28 06:07:00,33.3,23.5,29.06,NW,315,0.0,0.0,67,-99.99,,,-99.99,WSDL version 420,2013-01-28 11:07:00,
2013-01-28 06:12:00,33.3,23.8,29.06,NW,315,0.0,0.0,68,-99.99,,,-99.99,WSDL version 420,2013-01-28 11:12:00,
2013-01-28 06:17:00,33.3,23.9,29.06,NW,315,0.0,0.0,68,-99.99,,,-99.99,WSDL version 420,2013-01-28 11:17:00,
2013-01-28 06:22:00,33.3,23.9,29.09,NW,315,0.0,0.0,68,-99.99,,,-99.99,WSDL version 420,2013-01-28 11:22:00,
2013-01-28 06:27:00,33.3,23.7,29.09,NW,315,0.0,0.0,68,-99.99,,,-99.99,WSDL version 420,2013-01-28 11:27:00,
2013-01-28 06:32:00,33.3,23.9,29.09,NW,315,0.0,0.0,68,-99.99,,,-99.99,WSDL version 420,2013-01-28 11:32:00,
2013-01-28 06:37:00,33.3,23.9,29.09,NW,315,0.0,0.0,68,-99.99,,,-99.99,WSDL version 420,2013-01-28 11:37:00,
2013-01-28 06:42:00,33.3,24.1,29.09,NW,315,0.0,0.0,69,-99.99,,,-99.99,WSDL version 420,2013-01-28 11:42:00,
2013-01-28 06:47:00,33.3,24.2,29.09,NW,315,0.0,0.0,69,-99.99,,,-99.99,WSDL version 420,2013-01-28 11:47:00,
2013-01-28 06:52:00,33.3,24.2,29.09,NW,315,0.0,0.0,69,-99.99,,,-99.99,WSDL version 420,2013-01-28 11:52:00,
2013-01-28 06:57:00,33.3,24.2,29.09,NW,315,0.0,0.0,69,-99.99,,,-99.99,WSDL version 420,2013-01-28 11:57:00,
2013-01-28 07:02:00,33.4,24.3,29.09,NW,315,0.0,0.0,69,-99.99,,,-99.99,WSDL version 420,2013-01-28 12:02:00,
2013-01-28 07:07:00,33.4,24.5,29.09,NW,315,0.0,0.0,69,-99.99,,,-99.99,WSDL version 420,2013-01-28 12:07:00,
2013-01-28 07:12:00,33.5,24.4,29.09,NW,315,0.0,0.0,69,-99.99,,,-99.99,WSDL version 420,2013-01-28 12:12:00,
2013-01-28 07:17:00,33.6,24.5,29.09,NW,315,0.0,0.0,69,-99.99,,,-99.99,WSDL version 420,2013-01-28 12:17:00,
2013-01-28 07:22:00,33.6,24.5,29.09,NW,315,0.0,0.0,69,-99.99,,,-99.99,WSDL version 420,2013-01-28 12:22:00,
2013-01-28 07:27:00,33.6,24.7,29.09,NW,315,0.0,0.0,70,-99.99,,,-99.99,WSDL version 420,2013-01-28 12:27:00,
2013-01-28 07:32:00,33.6,24.9,29.09,NW,315,0.0,0.0,71,-99.99,,,-99.99,WSDL version 420,2013-01-28 12:32:00,
2013-01-28 07:37:00,33.6,25.1,29.09,NW,315,0.0,0.0,70,-99.99,,,-99.99,WSDL version 420,2013-01-28 12:37:00,
2013-01-28 07:42:00,33.6,24.9,29.09,NW,315,0.0,0.0,70,-99.99,,,-99.99,WSDL version 420,2013-01-28 12:42:00,
2013-01-28 07:47:00,33.6,24.9,29.09,NW,315,0.0,0.0,70,-99.99,,,-99.99,WSDL version 420,2013-01-28 12:47:00,
2013-01-28 07:52:00,33.8,25.1,29.09,NW,315,0.0,0.0,70,-99.99,,,-99.99,WSDL version 420,2013-01-28 12:52:00,
2013-01-28 07:57:00,33.8,25.1,29.09,NW,315,0.0,0.0,71,-99.99,,,-99.99,WSDL version 420,2013-01-28 12:57:00,
2013-01-28 08:02:00,33.8,25.4,29.09,West,270,0.0,2.5,71,-99.99,,,-99.99,WSDL version 420,2013-01-28 13:02:00,
2013-01-28 08:07:00,34.0,25.6,29.09,West,270,0.0,2.5,71,-99.99,,,-99.99,WSDL version 420,2013-01-28 13:07:00,
2013-01-28 08:12:00,34.0,25.6,29.09,WNW,295,0.0,0.0,71,-99.99,,,-99.99,WSDL version 420,2013-01-28 13:12:00,
2013-01-28 08:17:00,34.2,26.3,29.09,NNW,338,0.0,0.0,73,-99.99,,,-99.99,WSDL version 420,2013-01-28 13:17:00,
2013-01-28 08:22:00,34.4,26.9,29.09,North,360,0.0,0.0,74,-99.99,,,-99.99,WSDL version 420,2013-01-28 13:22:00,
2013-01-28 08:27:00,34.6,27.2,29.09,North,360,0.0,0.0,74,-99.99,,,-99.99,WSDL version 420,2013-01-28 13:27:00,
2013-01-28 08:32:00,34.8,27.4,29.09,WNW,298,0.0,0.0,74,-99.99,,,-99.99,WSDL version 420,2013-01-28 13:32:00,
2013-01-28 08:37:00,34.9,27.7,29.09,WNW,293,0.0,0.0,75,-99.99,,,-99.99,WSDL version 420,2013-01-28 13:37:00,
2013-01-28 08:42:00,35.2,28.1,29.09,WNW,293,0.0,0.0,75,-99.99,,,-99.99,WSDL version 420,2013-01-28 13:42:00,
2013-01-28 08:47:00,35.5,28.4,29.09,WNW,293,0.0,0.0,75,-99.99,,,-99.99,WSDL version 420,2013-01-28 13:47:00,
2013-01-28 08:52:00,35.7,28.5,29.06,ESE,113,0.0,0.0,75,-99.99,,,-99.99,WSDL version 420,2013-01-28 13:52:00,
2013-01-28 08:57:00,36.1,29.1,29.06,South,180,0.0,0.0,76,-99.99,,,-99.99,WSDL version 420,2013-01-28 13:57:00,
2013-01-28 09:02:00,36.7,30.0,29.06,South,180,0.0,0.0,77,-99.99,,,-99.99,WSDL version 420,2013-01-28 14:02:00,
2013-01-28 09:07:00,37.4,30.7,29.09,SSW,203,0.0,0.0,77,-99.99,,,-99.99,WSDL version 420,2013-01-28 14:07:00,
2013-01-28 09:12:00,37.6,30.8,29.09,SE,135,0.0,0.0,76,-99.99,,,-99.99,WSDL version 420,2013-01-28 14:12:00,
2013-01-28 09:17:00,37.6,30.5,29.09,SSE,152,0.0,0.0,76,-99.99,,,-99.99,WSDL version 420,2013-01-28 14:17:00,
2013-01-28 09:22:00,37.9,31.1,29.06,WSW,248,0.0,0.0,76,-99.99,,,-99.99,WSDL version 420,2013-01-28 14:22:00,
2013-01-28 09:27:00,38.1,31.2,29.06,WSW,248,0.0,0.0,75,-99.99,,,-99.99,WSDL version 420,2013-01-28 14:27:00,
2013-01-28 09:32:00,38.0,30.8,29.06,SSW,203,0.0,0.0,75,-99.99,,,-99.99,WSDL version 420,2013-01-28 14:32:00,
2013-01-28 09:37:00,37.9,30.4,29.06,South,180,0.0,0.0,74,-99.99,,,-99.99,WSDL version 420,2013-01-28 14:37:00,
2013-01-28 09:42:00,37.9,30.5,29.06,South,180,0.0,0.0,75,-99.99,,,-99.99,WSDL version 420,2013-01-28 14:42:00,
2013-01-28 09:47:00,38.0,30.8,29.06,South,180,0.0,0.0,75,-99.99,,,-99.99,WSDL version 420,2013-01-28 14:47:00,
2013-01-28 09:52:00,38.0,30.8,29.06,South,180,0.0,1.6,75,-99.99,,,-99.99,WSDL version 420,2013-01-28 14:52:00,
2013-01-28 09:57:00,37.9,30.7,29.06,South,180,0.0,1.6,75,-99.99,,,-99.99,WSDL version 420,2013-01-28 14:57:00,
2013-01-28 10:02:00,38.1,31.2,29.06,SE,129,0.0,2.0,76,-99.99,,,-99.99,WSDL version 420,2013-01-28 15:02:00,
2013-01-28 10:07:00,38.1,31.1,29.06,South,188,1.7,2.9,75,-99.99,,,-99.99,WSDL version 420,2013-01-28 15:07:00,
2013-01-28 10:12:00,37.9,30.7,29.06,South,183,0.3,2.9,75,-99.99,,,-99.99,WSDL version 420,2013-01-28 15:12:00,
2013-01-28 10:17:00,37.9,30.7,29.06,SE,135,0.0,2.2,75,-99.99,,,-99.99,WSDL version 420,2013-01-28 15:17:00,
2013-01-28 10:22:00,38.0,31.0,29.06,SE,133,1.3,2.9,76,-99.99,,,-99.99,WSDL version 420,2013-01-28 15:22:00,
2013-01-28 10:27:00,38.3,31.6,29.06,SE,138,0.3,2.9,77,-99.99,,,-99.99,WSDL version 420,2013-01-28 15:27:00,
2013-01-28 10:32:00,39.2,32.9,29.06,SSE,163,0.0,2.9,78,-99.99,,,-99.99,WSDL version 420,2013-01-28 15:32:00,
2013-01-28 10:37:00,41.0,35.3,29.06,SSE,155,2.2,5.8,82,-99.99,,,-99.99,WSDL version 420,2013-01-28 15:37:00,
2013-01-28 10:42:00,42.0,37.0,29.06,SW,236,0.7,5.8,82,-99.99,,,-99.99,WSDL version 420,2013-01-28 15:42:00,
2013-01-28 10:47:00,45.6,41.7,29.06,WNW,295,2.6,7.6,87,-99.99,,,-99.99,WSDL version 420,2013-01-28 15:47:00,
2013-01-28 10:52:00,48.1,45.0,29.06,WNW,288,2.8,7.6,90,-99.99,,,-99.99,WSDL version 420,2013-01-28 15:52:00,
2013-01-28 10:57:00,50.0,47.2,29.06,WNW,303,3.9,6.3,89,-99.99,,,-99.99,WSDL version 420,2013-01-28 15:57:00,
2013-01-28 11:02:00,50.1,42.9,29.06,NW,312,5.7,8.7,63,-99.99,,,-99.99,WSDL version 420,2013-01-28 16:02:00,
2013-01-28 11:07:00,50.3,34.8,29.06,WNW,295,5.5,8.7,53,-99.99,,,-99.99,WSDL version 420,2013-01-28 16:07:00,
2013-01-28 11:12:00,50.4,33.3,29.06,NW,304,4.6,11.0,52,-99.99,,,-99.99,WSDL version 420,2013-01-28 16:12:00,
2013-01-28 11:17:00,51.0,33.3,29.06,WNW,295,6.4,13.2,49,-99.99,,,-99.99,WSDL version 420,2013-01-28 16:17:00,
2013-01-28 11:22:00,52.4,33.3,29.06,NNE,23,4.6,13.2,47,-99.99,,,-99.99,WSDL version 420,2013-01-28 16:22:00,
2013-01-28 11:27:00,53.9,33.5,29.06,NW,313,4.3,9.6,45,-99.99,,,-99.99,WSDL version 420,2013-01-28 16:27:00,
2013-01-28 11:32:00,57.0,33.9,29.06,WNW,295,6.2,10.7,38,-99.99,,,-99.99,WSDL version 420,2013-01-28 16:32:00,
2013-01-28 11:37:00,55.6,30.0,29.03,NW,312,3.9,10.7,38,-99.99,,,-99.99,WSDL version 420,2013-01-28 16:37:00,
2013-01-28 11:42:00,54.5,29.5,29.03,WNW,285,5.5,10.1,39,-99.99,,,-99.99,WSDL version 420,2013-01-28 16:42:00,
2013-01-28 11:47:00,55.2,30.2,29.03,West,276,5.9,10.1,38,-99.99,,,-99.99,WSDL version 420,2013-01-28 16:47:00,
2013-01-28 11:52:00,54.1,29.4,29.03,NW,308,4.0,12.1,39,-99.99,,,-99.99,WSDL version 420,2013-01-28 16:52:00,
2013-01-28 11:57:00,54.3,30.3,29.03,West,267,3.5,12.1,40,-99.99,,,-99.99,WSDL version 420,2013-01-28 16:57:00,
2013-01-28 12:02:00,54.3,29.9,29.03,West,268,4.5,8.7,39,-99.99,,,-99.99,WSDL version 420,2013-01-28 17:02:00,
2013-01-28 12:07:00,54.9,30.5,29.03,WNW,298,5.7,10.1,39,-99.99,,,-99.99,WSDL version 420,2013-01-28 17:07:00,
2013-01-28 12:12:00,55.2,30.2,29.03,WNW,295,5.3,10.1,38,-99.99,,,-99.99,WSDL version 420,2013-01-28 17:12:00,
2013-01-28 12:17:00,54.7,29.6,29.03,WNW,283,6.7,13.2,38,-99.99,,,-99.99,WSDL version 420,2013-01-28 17:17:00,
2013-01-28 12:22:00,54.8,30.2,29.03,WNW,290,4.9,13.2,39,-99.99,,,-99.99,WSDL version 420,2013-01-28 17:22:00,
2013-01-28 12:27:00,55.0,30.3,29.03,WNW,290,7.4,12.5,38,-99.99,,,-99.99,WSDL version 420,2013-01-28 17:27:00,
2013-01-28 12:32:00,55.3,30.1,29.03,WNW,293,6.1,12.5,38,-99.99,,,-99.99,WSDL version 420,2013-01-28 17:32:00,
2013-01-28 12:37:00,56.0,30.3,29.00,WNW,285,7.2,15.7,37,-99.99,,,-99.99,WSDL version 420,2013-01-28 17:37:00,
2013-01-28 12:42:00,56.3,30.2,29.00,WNW,293,6.2,15.7,36,-99.99,,,-99.99,WSDL version 420,2013-01-28 17:42:00,
2013-01-28 12:47:00,56.6,30.4,29.00,WNW,293,4.3,9.6,36,-99.99,,,-99.99,WSDL version 420,2013-01-28 17:47:00,
2013-01-28 12:52:00,56.5,29.9,29.00,WNW,303,7.8,12.1,36,-99.99,,,-99.99,WSDL version 420,2013-01-28 17:52:00,
2013-01-28 12:57:00,56.2,29.6,29.00,WNW,289,5.2,12.1,36,-99.99,,,-99.99,WSDL version 420,2013-01-28 17:57:00,
2013-01-28 13:02:00,56.2,29.6,29.00,NW,308,4.3,8.1,36,-99.99,,,-99.99,WSDL version 420,2013-01-28 18:02:00,
2013-01-28 13:07:00,56.4,29.9,29.00,West,276,6.7,12.3,36,-99.99,,,-99.99,WSDL version 420,2013-01-28 18:07:00,
2013-01-28 13:12:00,55.9,29.3,29.00,West,260,6.4,12.3,36,-99.99,,,-99.99,WSDL version 420,2013-01-28 18:12:00,
2013-01-28 13:17:00,55.3,29.2,29.00,WNW,288,6.2,10.3,37,-99.99,,,-99.99,WSDL version 420,2013-01-28 18:17:00,
2013-01-28 13:22:00,54.5,29.7,29.00,West,267,3.2,10.3,39,-99.99,,,-99.99,WSDL version 420,2013-01-28 18:22:00,
2013-01-28 13:27:00,53.3,29.8,29.00,East,85,1.9,8.1,41,-99.99,,,-99.99,WSDL version 420,2013-01-28 18:27:00,
2013-01-28 13:32:00,52.7,30.9,29.00,NNW,338,1.7,4.3,45,-99.99,,,-99.99,WSDL version 420,2013-01-28 18:32:00,
2013-01-28 13:37:00,51.8,32.7,29.00,WNW,298,1.4,4.3,49,-99.99,,,-99.99,WSDL version 420,2013-01-28 18:37:00,
2013-01-28 13:42:00,51.6,34.6,29.00,West,276,3.6,5.6,55,-99.99,,,-99.99,WSDL version 420,2013-01-28 18:42:00,
2013-01-28 13:47:00,51.6,36.5,29.00,West,280,2.6,7.2,58,-99.99,,,-99.99,WSDL version 420,2013-01-28 18:47:00,
2013-01-28 13:52:00,51.7,38.4,29.00,West,259,4.1,8.5,61,-99.99,,,-99.99,WSDL version 420,2013-01-28 18:52:00,
2013-01-28 13:57:00,51.6,38.5,29.00,WNW,298,4.4,8.5,62,-99.99,,,-99.99,WSDL version 420,2013-01-28 18:57:00,
2013-01-28 14:02:00,51.6,39.2,29.00,WNW,293,2.1,6.3,62,-99.99,,,-99.99,WSDL version 420,2013-01-28 19:02:00,
2013-01-28 14:07:00,51.5,39.3,28.97,WNW,295,2.9,6.0,63,-99.99,,,-99.99,WSDL version 420,2013-01-28 19:07:00,
2013-01-28 14:12:00,51.4,39.6,28.97,WNW,290,2.9,6.3,64,-99.99,,,-99.99,WSDL version 420,2013-01-28 19:12:00,
2013-01-28 14:17:00,51.3,40.2,28.97,WNW,293,3.7,6.3,66,-99.99,,,-99.99,WSDL version 420,2013-01-28 19:17:00,
2013-01-28 14:22:00,51.1,40.1,29.00,WNW,283,1.6,6.0,66,-99.99,,,-99.99,WSDL version 420,2013-01-28 19:22:00,
2013-01-28 14:27:00,51.0,40.7,29.00,West,262,2.9,9.6,68,-99.99,,,-99.99,WSDL version 420,2013-01-28 19:27:00,
2013-01-28 14:32:00,51.0,41.2,29.00,WSW,245,2.6,9.6,69,-99.99,,,-99.99,WSDL version 420,2013-01-28 19:32:00,
2013-01-28 14:37:00,50.8,41.4,29.00,WNW,298,3.8,7.6,71,-99.99,,,-99.99,WSDL version 420,2013-01-28 19:37:00,
2013-01-28 14:42:00,50.9,42.2,29.00,West,270,3.5,7.6,72,-99.99,,,-99.99,WSDL version 420,2013-01-28 19:42:00,
2013-01-28 14:47:00,50.9,42.3,29.00,West,273,3.8,7.6,73,-99.99,,,-99.99,WSDL version 420,2013-01-28 19:47:00,
2013-01-28 14:52:00,50.9,42.4,29.00,WNW,290,2.3,5.8,72,-99.99,,,-99.99,WSDL version 420,2013-01-28 19:52:00,
2013-01-28 14:57:00,51.0,42.4,29.00,West,260,4.8,6.5,73,-99.99,,,-99.99,WSDL version 420,2013-01-28 19:57:00,
2013-01-28 15:02:00,50.9,42.3,29.00,WSW,258,3.0,6.5,72,-99.99,,,-99.99,WSDL version 420,2013-01-28 20:02:00,
2013-01-28 15:07:00,50.9,42.3,28.97,WNW,290,3.4,6.0,73,-99.99,,,-99.99,WSDL version 420,2013-01-28 20:07:00,
2013-01-28 15:12:00,51.0,42.6,28.97,WNW,300,4.1,7.6,73,-99.99,,,-99.99,WSDL version 420,2013-01-28 20:12:00,
2013-01-28 15:17:00,50.8,42.5,28.97,West,276,2.1,7.6,73,-99.99,,,-99.99,WSDL version 420,2013-01-28 20:17:00,
2013-01-28 15:22:00,50.7,42.2,29.00,WNW,290,3.6,5.6,73,-99.99,,,-99.99,WSDL version 420,2013-01-28 20:22:00,
2013-01-28 15:27:00,50.7,42.5,29.00,WNW,298,2.1,5.8,73,-99.99,,,-99.99,WSDL version 420,2013-01-28 20:27:00,
2013-01-28 15:32:00,50.5,42.1,29.00,ENE,78,1.5,5.8,72,-99.99,,,-99.99,WSDL version 420,2013-01-28 20:32:00,
2013-01-28 15:37:00,50.6,42.4,29.00,NW,308,0.4,7.8,73,-99.99,,,-99.99,WSDL version 420,2013-01-28 20:37:00,
2013-01-28 15:42:00,50.5,42.4,29.00,WNW,293,2.3,7.8,74,-99.99,,,-99.99,WSDL version 420,2013-01-28 20:42:00,
2013-01-28 15:47:00,50.4,42.4,29.00,West,280,2.5,6.0,74,-99.99,,,-99.99,WSDL version 420,2013-01-28 20:47:00,
2013-01-28 15:52:00,50.3,42.3,29.00,West,264,0.8,4.3,74,-99.99,,,-99.99,WSDL version 420,2013-01-28 20:52:00,
2013-01-28 15:57:00,50.3,42.4,29.00,West,275,3.1,4.7,75,-99.99,,,-99.99,WSDL version 420,2013-01-28 20:57:00,
2013-01-28 16:02:00,50.3,42.9,29.00,West,267,1.6,4.7,76,-99.99,,,-99.99,WSDL version 420,2013-01-28 21:02:00,
2013-01-28 16:07:00,50.2,43.1,29.00,NW,313,3.0,5.4,77,-99.99,,,-99.99,WSDL version 420,2013-01-28 21:07:00,
2013-01-28 16:12:00,50.2,43.5,29.00,West,280,0.7,5.4,78,-99.99,,,-99.99,WSDL version 420,2013-01-28 21:12:00,
2013-01-28 16:17:00,50.0,43.3,29.00,WNW,284,0.0,3.6,77,-99.99,,,-99.99,WSDL version 420,2013-01-28 21:17:00,
2013-01-28 16:22:00,50.0,43.1,29.00,WNW,290,0.3,3.1,77,-99.99,,,-99.99,WSDL version 420,2013-01-28 21:22:00,
2013-01-28 16:27:00,50.1,43.6,29.00,SSW,203,0.0,3.8,78,-99.99,,,-99.99,WSDL version 420,2013-01-28 21:27:00,
2013-01-28 16:33:00,50.0,43.4,29.00,East,88,0.0,2.7,78,-99.99,,,-99.99,WSDL version 420,2013-01-28 21:33:00,
2013-01-28 16:38:00,49.9,43.3,29.00,SE,146,0.6,3.4,78,-99.99,,,-99.99,WSDL version 420,2013-01-28 21:38:00,
2013-01-28 16:43:00,49.7,43.2,29.00,WNW,303,0.0,3.4,78,-99.99,,,-99.99,WSDL version 420,2013-01-28 21:43:00,
2013-01-28 16:48:00,49.9,44.0,29.00,SSW,197,0.4,5.6,81,-99.99,,,-99.99,WSDL version 420,2013-01-28 21:48:00,
2013-01-28 16:53:00,50.1,44.4,29.00,WSW,245,1.0,6.0,81,-99.99,,,-99.99,WSDL version 420,2013-01-28 21:53:00,
2013-01-28 16:58:00,50.1,44.6,29.00,SSW,194,0.6,6.0,81,-99.99,,,-99.99,WSDL version 420,2013-01-28 21:58:00,
2013-01-28 17:03:00,50.2,45.2,29.00,West,260,1.1,7.4,83,-99.99,,,-99.99,WSDL version 420,2013-01-28 22:03:00,
2013-01-28 17:08:00,50.1,44.9,29.00,SE,138,0.0,7.4,82,-99.99,,,-99.99,WSDL version 420,2013-01-28 22:08:00,
2013-01-28 17:13:00,50.0,44.8,29.00,WSW,239,0.3,2.9,82,-99.99,,,-99.99,WSDL version 420,2013-01-28 22:13:00,
2013-01-28 17:18:00,50.1,45.0,29.00,WSW,240,2.4,4.3,83,-99.99,,,-99.99,WSDL version 420,2013-01-28 22:18:00,
2013-01-28 17:23:00,50.6,46.2,29.00,West,273,4.3,6.3,86,-99.99,,,-99.99,WSDL version 420,2013-01-28 22:23:00,
2013-01-28 17:28:00,50.6,46.7,29.00,West,273,0.9,6.3,87,-99.99,,,-99.99,WSDL version 420,2013-01-28 22:28:00,
2013-01-28 17:33:00,50.7,46.9,29.00,West,273,2.7,7.2,87,-99.99,,,-99.99,WSDL version 420,2013-01-28 22:33:00,
2013-01-28 17:38:00,51.0,47.6,29.00,West,270,4.6,8.1,89,-99.99,,,-99.99,WSDL version 420,2013-01-28 22:38:00,
2013-01-28 17:43:00,50.9,47.7,29.00,NNW,348,2.5,8.1,89,-99.99,,,-99.99,WSDL version 420,2013-01-28 22:43:00,
2013-01-28 17:48:00,51.0,47.6,29.00,NW,312,3.0,6.7,88,-99.99,,,-99.99,WSDL version 420,2013-01-28 22:48:00,
2013-01-28 17:53:00,51.2,48.0,29.00,WNW,295,5.6,12.8,89,-99.99,,,-99.99,WSDL version 420,2013-01-28 22:53:00,
2013-01-28 17:58:00,51.3,48.1,29.00,WSW,250,3.0,12.8,89,-99.99,,,-99.99,WSDL version 420,2013-01-28 22:58:00,
2013-01-28 18:03:00,51.3,48.1,29.00,WSW,258,2.9,7.2,89,-99.99,,,-99.99,WSDL version 420,2013-01-28 23:03:00,
2013-01-28 18:08:00,51.3,48.0,29.00,WNW,284,2.9,7.2,88,-99.99,,,-99.99,WSDL version 420,2013-01-28 23:08:00,
2013-01-28 18:13:00,51.4,47.9,29.00,West,265,3.3,6.5,88,-99.99,,,-99.99,WSDL version 420,2013-01-28 23:13:00,
2013-01-28 18:18:00,51.5,47.7,29.00,WNW,293,4.3,8.5,87,-99.99,,,-99.99,WSDL version 420,2013-01-28 23:18:00,
2013-01-28 18:23:00,51.7,47.8,29.00,West,259,5.1,8.5,87,-99.99,,,-99.99,WSDL version 420,2013-01-28 23:23:00,
2013-01-28 18:28:00,51.8,47.8,29.00,WNW,303,3.1,8.1,86,-99.99,,,-99.99,WSDL version 420,2013-01-28 23:28:00,
2013-01-28 18:33:00,51.7,47.5,29.00,NW,304,1.3,5.8,86,-99.99,,,-99.99,WSDL version 420,2013-01-28 23:33:00,
2013-01-28 18:38:00,51.8,47.3,29.00,NW,320,3.6,7.2,84,-99.99,,,-99.99,WSDL version 420,2013-01-28 23:38:00,
2013-01-28 18:43:00,51.9,47.4,29.00,West,267,3.7,7.8,84,-99.99,,,-99.99,WSDL version 420,2013-01-28 23:43:00,
2013-01-28 18:48:00,52.0,47.4,29.00,WNW,285,4.8,9.4,84,-99.99,,,-99.99,WSDL version 420,2013-01-28 23:48:00,
2013-01-28 18:53:00,52.1,47.6,29.00,WNW,293,2.6,9.4,84,-99.99,,,-99.99,WSDL version 420,2013-01-28 23:53:00,
2013-01-28 18:58:00,52.1,47.2,29.00,NW,312,3.6,5.8,83,-99.99,,,-99.99,WSDL version 420,2013-01-28 23:58:00,
2013-01-28 19:03:00,51.9,47.0,29.00,WSW,248,2.3,6.3,83,-99.99,,,-99.99,WSDL version 420,2013-01-29 00:03:00,
2013-01-28 19:08:00,52.0,47.1,29.00,West,264,2.1,6.3,83,-99.99,,,-99.99,WSDL version 420,2013-01-29 00:08:00,
2013-01-28 19:13:00,51.9,47.1,29.00,WNW,283,1.6,6.0,83,-99.99,,,-99.99,WSDL version 420,2013-01-29 00:13:00,
2013-01-28 19:18:00,52.0,47.2,29.00,West,270,3.0,5.4,84,-99.99,,,-99.99,WSDL version 420,2013-01-29 00:18:00,
2013-01-28 19:23:00,51.9,47.4,29.00,WNW,290,3.8,7.4,84,-99.99,,,-99.99,WSDL version 420,2013-01-29 00:23:00,
2013-01-28 19:28:00,52.2,48.0,29.00,WNW,303,3.0,7.8,86,-99.99,,,-99.99,WSDL version 420,2013-01-29 00:28:00,
2013-01-28 19:33:00,52.0,47.8,29.00,WSW,245,2.4,7.8,86,-99.99,,,-99.99,WSDL version 420,2013-01-29 00:33:00,
2013-01-28 19:38:00,52.3,48.3,29.03,West,280,4.2,7.8,87,-99.99,,,-99.99,WSDL version 420,2013-01-29 00:38:00,
2013-01-28 19:43:00,52.0,48.2,29.03,WNW,293,1.3,6.5,87,-99.99,,,-99.99,WSDL version 420,2013-01-29 00:43:00,
2013-01-28 19:48:00,52.2,48.5,29.03,West,280,4.8,10.1,88,-99.99,,,-99.99,WSDL version 420,2013-01-29 00:48:00,
2013-01-28 19:53:00,52.4,49.2,29.00,WNW,298,1.9,10.1,89,-99.99,,,-99.99,WSDL version 420,2013-01-29 00:53:00,
2013-01-28 19:58:00,52.3,49.1,29.00,West,270,1.0,8.1,89,-99.99,,,-99.99,WSDL version 420,2013-01-29 00:58:00,
2013-01-28 20:03:00,52.4,49.2,29.00,West,275,3.4,8.1,89,-99.99,,,-99.99,WSDL version 420,2013-01-29 01:03:00,
2013-01-28 20:08:00,52.4,49.3,29.03,WNW,298,3.3,7.2,89,-99.99,,,-99.99,WSDL version 420,2013-01-29 01:08:00,
2013-01-28 20:13:00,52.6,49.7,29.03,WNW,298,3.5,8.5,90,-99.99,,,-99.99,WSDL version 420,2013-01-29 01:13:00,
2013-01-28 20:18:00,52.8,50.2,29.03,WNW,290,6.0,10.3,91,-99.99,,,-99.99,WSDL version 420,2013-01-29 01:18:00,
2013-01-28 20:23:00,52.8,50.3,29.03,WNW,288,2.7,10.3,91,-99.99,,,-99.99,WSDL version 420,2013-01-29 01:23:00,
2013-01-28 20:28:00,52.9,50.3,29.03,WNW,293,4.5,8.1,91,-99.99,,,-99.99,WSDL version 420,2013-01-29 01:28:00,
2013-01-28 20:33:00,52.7,50.1,29.03,WNW,285,0.9,8.1,90,-99.99,,,-99.99,WSDL version 420,2013-01-29 01:33:00,
2013-01-28 20:38:00,52.7,49.9,29.00,WNW,285,3.9,6.3,90,-99.99,,,-99.99,WSDL version 420,2013-01-29 01:38:00,
2013-01-28 20:43:00,52.9,50.2,29.00,West,278,3.8,6.3,91,-99.99,,,-99.99,WSDL version 420,2013-01-29 01:43:00,
2013-01-28 20:48:00,52.9,50.1,29.00,WNW,285,3.9,6.0,90,-99.99,,,-99.99,WSDL version 420,2013-01-29 01:48:00,
2013-01-28 20:53:00,52.8,50.0,29.00,WNW,293,3.6,6.3,90,-99.99,,,-99.99,WSDL version 420,2013-01-29 01:53:00,
2013-01-28 20:58:00,53.0,50.1,29.00,North,10,0.2,6.5,90,-99.99,,,-99.99,WSDL version 420,2013-01-29 01:58:00,
2013-01-28 21:03:00,52.9,50.1,29.00,WNW,290,3.4,6.5,90,-99.99,,,-99.99,WSDL version 420,2013-01-29 02:03:00,
2013-01-28 21:08:00,53.0,50.1,29.00,WNW,288,1.2,7.2,90,-99.99,,,-99.99,WSDL version 420,2013-01-29 02:08:00,
2013-01-28 21:13:00,52.9,49.8,29.00,NW,308,3.7,7.2,89,-99.99,,,-99.99,WSDL version 420,2013-01-29 02:13:00,
2013-01-28 21:18:00,53.1,50.0,29.00,NW,307,4.8,7.6,90,-99.99,,,-99.99,WSDL version 420,2013-01-29 02:18:00,
2013-01-28 21:23:00,53.1,50.3,29.00,NW,308,4.7,7.6,90,-99.99,,,-99.99,WSDL version 420,2013-01-29 02:23:00,
2013-01-28 21:28:00,53.2,50.3,29.00,NW,304,4.1,6.7,90,-99.99,,,-99.99,WSDL version 420,2013-01-29 02:28:00,
2013-01-28 21:33:00,53.2,50.3,29.00,West,275,4.2,7.2,90,-99.99,,,-99.99,WSDL version 420,2013-01-29 02:33:00,
2013-01-28 21:38:00,53.3,50.4,29.00,WNW,301,5.4,8.1,90,-99.99,,,-99.99,WSDL version 420,2013-01-29 02:38:00,
2013-01-28 21:44:00,53.4,50.6,29.00,NW,312,4.0,10.1,90,-99.99,,,-99.99,WSDL version 420,2013-01-29 02:44:00,
2013-01-28 21:49:00,53.2,50.1,29.00,NW,307,2.9,8.7,89,-99.99,,,-99.99,WSDL version 420,2013-01-29 02:49:00,
2013-01-28 21:54:00,53.2,49.9,29.00,WNW,283,2.0,8.9,88,-99.99,,,-99.99,WSDL version 420,2013-01-29 02:54:00,
2013-01-28 21:59:00,53.2,49.6,29.00,West,276,3.0,8.9,88,-99.99,,,-99.99,WSDL version 420,2013-01-29 02:59:00,
2013-01-28 22:04:00,53.4,50.1,29.00,WNW,290,5.6,7.8,89,-99.99,,,-99.99,WSDL version 420,2013-01-29 03:04:00,
2013-01-28 22:09:00,53.4,50.2,29.00,WNW,285,2.9,7.8,89,-99.99,,,-99.99,WSDL version 420,2013-01-29 03:09:00,
2013-01-28 22:14:00,53.3,50.0,29.00,West,278,5.4,11.9,89,-99.99,,,-99.99,WSDL version 420,2013-01-29 03:14:00,
2013-01-28 22:19:00,53.4,50.2,29.00,WNW,288,1.9,11.9,89,-99.99,,,-99.99,WSDL version 420,2013-01-29 03:19:00,
2013-01-28 22:24:00,53.2,49.8,29.00,WNW,284,3.6,6.0,88,-99.99,,,-99.99,WSDL version 420,2013-01-29 03:24:00,
2013-01-28 22:29:00,53.1,49.6,29.00,WNW,288,1.5,5.4,88,-99.99,,,-99.99,WSDL version 420,2013-01-29 03:29:00,
2013-01-28 22:34:00,53.2,49.8,29.00,West,276,5.6,8.1,89,-99.99,,,-99.99,WSDL version 420,2013-01-29 03:34:00,
2013-01-28 22:39:00,53.2,50.1,29.00,NW,315,4.2,8.1,89,-99.99,,,-99.99,WSDL version 420,2013-01-29 03:39:00,
2013-01-28 22:44:00,53.2,50.1,29.00,NW,315,3.8,6.3,89,-99.99,,,-99.99,WSDL version 420,2013-01-29 03:44:00,
2013-01-28 22:49:00,53.2,50.1,29.00,West,264,1.6,5.8,89,-99.99,,,-99.99,WSDL version 420,2013-01-29 03:49:00,
2013-01-28 22:54:00,53.2,50.1,29.00,WNW,288,3.6,9.6,89,-99.99,,,-99.99,WSDL version 420,2013-01-29 03:54:00,
2013-01-28 22:59:00,53.3,50.4,29.00,NW,304,3.4,9.6,90,-99.99,,,-99.99,WSDL version 420,2013-01-29 03:59:00,
2013-01-28 23:04:00,53.2,50.4,29.00,WNW,295,2.9,6.0,90,-99.99,,,-99.99,WSDL version 420,2013-01-29 04:04:00,
2013-01-28 23:09:00,53.2,50.4,29.00,NW,309,1.2,7.6,90,-99.99,,,-99.99,WSDL version 420,2013-01-29 04:09:00,
2013-01-28 23:14:00,53.2,50.3,29.00,West,270,1.9,7.6,90,-99.99,,,-99.99,WSDL version 420,2013-01-29 04:14:00,
2013-01-28 23:19:00,53.1,50.3,29.00,WNW,285,2.6,6.3,90,-99.99,,,-99.99,WSDL version 420,2013-01-29 04:19:00,
2013-01-28 23:24:00,53.1,50.1,29.00,WNW,301,1.9,6.3,89,-99.99,,,-99.99,WSDL version 420,2013-01-29 04:24:00,
2013-01-28 23:29:00,53.1,50.2,29.00,WNW,290,2.0,5.4,90,-99.99,,,-99.99,WSDL version 420,2013-01-29 04:29:00,
2013-01-28 23:34:00,53.2,50.4,29.00,West,278,2.6,6.5,90,-99.99,,,-99.99,WSDL version 420,2013-01-29 04:34:00,
2013-01-28 23:39:00,53.0,50.2,29.00,NW,305,2.0,6.5,90,-99.99,,,-99.99,WSDL version 420,2013-01-29 04:39:00,
2013-01-28 23:44:00,53.0,50.1,29.00,West,264,0.2,4.3,90,-99.99,,,-99.99,WSDL version 420,2013-01-29 04:44:00,
2013-01-28 23:49:00,52.9,49.8,29.00,NW,308,0.0,4.3,90,-99.99,,,-99.99,WSDL version 420,2013-01-29 04:49:00,
2013-01-28 23:54:00,52.8,49.7,29.00,West,270,1.2,6.0,89,-99.99,,,-99.99,WSDL version 420,2013-01-29 04:54:00,
2013-01-28 23:59:00,52.7,49.5,29.00,WNW,290,3.5,6.0,89,-99.99,,,-99.99,WSDL version 420,2013-01-29 04:59:00,